All City Stadium (Denver), Colorado
Current Conditions -  °F | °C
As of 4:53 PM on Friday 24 Oct 2014 (Local Time) from KAPA Reporting Station
Few Clouds Few Clouds  
Wind Chill: 76°   Ceiling: Unl
Heat Index: 76°   Visibility: 10mi
Dew Point: 23°   Wind: 9mph
Humidity: 14%   Direction: 110°ESE
Pressure: 30.16"   Gusts: NA
Location:  39.69109°N, 104.9663°W
Report Text: KAPA 242253Z 11008KT 10SM FEW200 24/M05 A3016 RMK AO2 SLP148 T02441050
Loading
Personal Weather Stations






























Interactive Weather Map
Tropical Storm Tracking
New forecast layout! Learn more

10-Day Weather Forecast

Advertisements
Track Severe Weather on mobile